Autryville, NC (28318)

3:13 AM EDT on July 25, 2016 (GMT -0400)
Big Creek | | Change Station
Active Advisory: Heat Advisory Active Notice: Public Information Statement

Elev 98 ft 35.04 °N, 78.67 °W | Updated 5 seconds ago

Clear
Clear
77.2 °F
Feels Like 78 °F
N
0.0
Wind Variable Wind from South
Gusts 1.0 mph

Today
High -- | Low -- °F
--% Chance of Precip.
Yesterday
High -- | Low -- °F
Precip. -- in
Pressure 30.04 in
Visibility 7.0 miles
Clouds Clear
Heat Index 78 °F
Dew Point 76 °F
Humidity 96%
Rainfall 0.00 in
Snow Depth Not available.
6:18 AM 8:22 PM
Waning Gibbous, 68% visible
METAR KCTZ 250700Z AUTO 00000KT 7SM CLR 26/26 A3004 RMK AO2 T02550255
Pressure 30.04 in
Visibility 7.0 miles
Clouds Clear
Heat Index 78 °F
Dew Point 76 °F
Humidity 96%
Rainfall 0.00 in
Snow Depth Not available.
6:18 AM 8:22 PM
Waning Gibbous, 68% visible
METAR KCTZ 250700Z AUTO 00000KT 7SM CLR 26/26 A3004 RMK AO2 T02550255

10-Day Weather Forecast

Almanac

Astronomy

Jul. 25, 2016 Rise Set
Actual Time
Civil Twilight
Nautical Twilight
Astronomical Twilight
Moon
Length of Visible Light
Length of Day
Tomorrow will be .
, % of the Moon is Illuminated

Today's Extremes

State Highs State Lows

Community

WunderPhotos

Upload Photos

1,927,274 photos uploaded!

WunderBlog® & News

Nearby

Air Quality

  Air Quality AQ Index Pollutant
Not available.

Snow Depth

Station Depth Elevation

Earthquake Activity

City Distance Mag. Time & Date
Minimum magnitude displayed is 2.5.

Coastal Water Temperatures

Place Temperature

Stations

Nearby Weather Stations

Station Location Temp. Windchill Dew Point Humidity Wind Precip. Elev Updated Type
                   

Watches & Warnings

Heat Advisory
Issued: 10:22 PM EDT Jul. 24, 2016 – National Weather Service

... A heat advisory remains in effect from noon to 8 PM EDT
Monday...

* temperatures... mid to upper 90s.

* Heat indices... 103 to 108 degrees.

* Impacts... increased risk of heat related illnesses.

Precautionary/preparedness actions...

A heat advisory means that high heat and humidity will create a
situation in which heat illnesses are more likely to occur...
typically when heat indices reach or exceed 105 degrees. Avoid
prolonged exposure to direct sunshine. If you must be outside...
take frequent breaks in the shade or inside an air-conditioned
room... and drink plenty of water to avoid dehydration.


Vincent